Time;durP1;ratioP1;P1;durP2;ratioP2;P2;SDS_P1;SDS_P2;PMS_P1;PMS_P2;Temp;Humidity;BMP_temperature;BMP_pressure;BME280_temperature;BME280_humidity;BME280_pressure;Samples;Min_cycle;Max_cycle;Signal;HPM_P1;HPM_P2
2023/09/26 00:01:55;;;;;;;8.87;2.80;;;;;;;20.10;87.46;100864.66;5027155;28;20359;-58
2023/09/26 00:04:26;;;;;;;7.90;2.47;;;;;;;20.28;86.53;100880.63;5016903;28;20370;-60
2023/09/26 00:06:59;;;;;;;12.47;3.00;;;;;;;20.33;86.96;100878.63;5026717;28;20287;-58
2023/09/26 00:09:30;;;;;;;11.03;2.70;;;;;;;20.48;87.75;100876.09;5035378;28;20275;-60
2023/09/26 00:12:03;;;;;;;6.20;2.50;;;;;;;20.72;86.83;100867.03;5045925;28;20295;-59
2023/09/26 00:14:34;;;;;;;6.90;2.30;;;;;;;20.93;85.84;100866.00;5036251;28;20294;-59
2023/09/26 00:17:05;;;;;;;11.13;2.40;;;;;;;21.14;84.49;100868.50;5046087;28;20371;-58
2023/09/26 00:19:36;;;;;;;7.13;1.90;;;;;;;21.01;81.38;100858.50;5035022;28;20609;-58
2023/09/26 00:22:08;;;;;;;10.30;2.60;;;;;;;20.96;82.13;100855.22;5035366;28;20283;-59
2023/09/26 00:24:39;;;;;;;5.67;2.53;;;;;;;21.13;81.79;100858.81;5045961;28;20321;-58
2023/09/26 00:27:11;;;;;;;7.03;2.20;;;;;;;21.27;80.91;100848.34;5035689;28;20298;-59
2023/09/26 00:29:42;;;;;;;4.37;1.90;;;;;;;21.43;79.28;100843.97;5046826;28;20345;-60
2023/09/26 00:32:12;;;;;;;9.00;1.83;;;;;;;20.96;78.09;100772.00;5035565;28;20704;-58
2023/09/26 00:34:43;;;;;;;8.03;2.00;;;;;;;21.49;77.21;100842.78;5045475;28;20297;-58
2023/09/26 00:37:13;;;;;;;4.70;1.60;;;;;;;21.63;75.52;100850.03;5042358;28;20296;-58
2023/09/26 00:39:44;;;;;;;3.70;1.20;;;;;;;21.45;73.06;100836.78;5050098;28;20926;-60
2023/09/26 00:42:16;;;;;;;5.27;1.53;;;;;;;21.33;71.25;100837.38;5045365;28;20285;-59
2023/09/26 00:44:47;;;;;;;6.80;1.57;;;;;;;21.32;73.13;100830.38;5052576;28;20271;-59
2023/09/26 00:47:18;;;;;;;4.43;1.67;;;;;;;21.44;74.34;100823.56;5043729;28;20844;-58
2023/09/26 00:49:49;;;;;;;7.00;2.00;;;;;;;21.47;74.57;100829.59;5060647;28;20361;-59
2023/09/26 00:52:19;;;;;;;2.00;1.30;;;;;;;21.61;73.72;100830.66;5053267;28;20144;-59
2023/09/26 00:54:49;;;;;;;5.07;1.40;;;;;;;21.74;73.01;100815.75;5064752;28;20486;-58
2023/09/26 00:57:22;;;;;;;3.43;1.40;;;;;;;21.79;72.80;100819.03;5053944;28;20873;-59
2023/09/26 00:59:52;;;;;;;2.60;1.10;;;;;;;21.69;71.30;100817.78;5062216;28;20052;-58
2023/09/26 01:02:23;;;;;;;1.63;1.10;;;;;;;21.65;72.12;100810.94;5043358;28;20270;-58
2023/09/26 01:04:54;;;;;;;5.53;1.20;;;;;;;21.73;72.87;100817.53;5058574;28;20294;-58
2023/09/26 01:07:26;;;;;;;3.97;1.27;;;;;;;21.78;72.06;100811.13;5050593;28;20172;-58
2023/09/26 01:09:57;;;;;;;2.30;1.07;;;;;;;21.61;71.63;100814.69;5045335;28;20405;-60
2023/09/26 01:12:30;;;;;;;2.57;1.17;;;;;;;21.65;71.99;100805.63;5034445;28;20361;-59
2023/09/26 01:15:01;;;;;;;3.03;1.10;;;;;;;21.71;71.79;100807.94;5044592;28;20083;-59
2023/09/26 01:17:33;;;;;;;3.87;1.30;;;;;;;21.67;71.19;100793.09;5034327;28;20064;-60
2023/09/26 01:20:11;;;;;;;2.80;1.00;;;;;;;21.59;70.40;100812.13;5045139;28;20291;-61
2023/09/26 01:22:45;;;;;;;4.65;1.08;;;;;;;21.58;71.21;100788.28;5034261;28;20056;-60
2023/09/26 01:25:21;;;;;;;7.27;1.30;;;;;;;21.85;72.37;100801.88;5033303;28;20062;-59
2023/09/26 01:27:51;;;;;;;4.03;1.40;;;;;;;21.72;70.88;100796.38;5044314;28;20044;-59
2023/09/26 01:30:22;;;;;;;4.87;1.10;;;;;;;21.54;71.18;100793.75;5034385;28;20554;-59
2023/09/26 01:32:53;;;;;;;2.73;1.00;;;;;;;21.31;71.28;100799.38;5044524;28;20264;-61
2023/09/26 01:35:24;;;;;;;6.40;1.43;;;;;;;21.08;71.54;100795.28;5034458;28;20545;-59
2023/09/26 01:37:54;;;;;;;3.63;1.13;;;;;;;20.95;72.75;100779.13;5044743;28;20064;-61
2023/09/26 01:40:27;;;;;;;1.20;0.90;;;;;;;20.86;72.40;100790.19;5033827;28;20091;-58
2023/09/26 01:42:57;;;;;;;4.77;1.30;;;;;;;20.72;72.41;100782.06;5044377;28;20286;-58
2023/09/26 01:45:28;;;;;;;6.10;1.30;;;;;;;20.60;74.03;100778.25;5034111;28;20536;-59
2023/09/26 01:48:01;;;;;;;7.50;1.40;;;;;;;20.81;74.27;100760.38;5045131;28;20279;-61
2023/09/26 01:50:32;;;;;;;4.60;0.90;;;;;;;21.24;73.53;100763.44;5034481;28;20293;-62
2023/09/26 01:53:03;;;;;;;3.73;1.00;;;;;;;21.40;72.66;100761.72;5044475;28;20760;-61
2023/09/26 01:55:35;;;;;;;7.77;1.90;;;;;;;21.50;72.90;100760.28;5033621;28;20302;-59
2023/09/26 01:58:06;;;;;;;8.00;1.63;;;;;;;21.70;70.74;100758.34;5042224;28;20360;-60
2023/09/26 02:00:37;;;;;;;6.03;1.20;;;;;;;21.87;70.37;100763.59;5044272;28;20375;-59
2023/09/26 02:03:07;;;;;;;8.77;1.40;;;;;;;22.00;67.66;100746.97;5033849;28;20282;-59
2023/09/26 02:05:38;;;;;;;3.00;1.00;;;;;;;22.06;66.00;100735.94;5044609;28;20287;-58
2023/09/26 02:08:09;;;;;;;3.53;1.10;;;;;;;22.16;65.12;100739.81;5039904;28;20040;-58
2023/09/26 02:10:41;;;;;;;3.93;1.00;;;;;;;22.26;63.99;100733.03;5044068;28;20291;-59
2023/09/26 02:13:12;;;;;;;2.13;0.90;;;;;;;22.32;64.74;100730.03;5033142;28;20094;-60
2023/09/26 02:15:42;;;;;;;3.73;1.20;;;;;;;22.44;63.55;100730.25;5043506;28;20072;-61
2023/09/26 02:18:13;;;;;;;5.63;1.00;;;;;;;22.54;63.73;100721.66;5033462;28;20048;-59
2023/09/26 02:20:43;;;;;;;7.87;1.27;;;;;;;22.61;63.28;100723.00;5044541;28;20086;-59
2023/09/26 02:23:14;;;;;;;4.90;1.20;;;;;;;22.73;62.47;100721.41;5013563;28;20061;-59
2023/09/26 02:25:52;;;;;;;11.10;1.17;;;;;;;22.75;61.59;100708.00;5005174;28;20047;-58
2023/09/26 02:28:22;;;;;;;2.27;0.87;;;;;;;22.96;61.74;100714.66;4994847;28;20084;-60
2023/09/26 02:30:53;;;;;;;2.37;0.87;;;;;;;23.00;59.24;100702.06;5005076;28;20128;-59
2023/09/26 02:33:23;;;;;;;4.57;0.93;;;;;;;23.02;60.95;100700.16;5014076;28;20114;-57
2023/09/26 02:35:54;;;;;;;4.67;1.10;;;;;;;23.08;60.25;100697.09;5024020;28;20150;-59
2023/09/26 02:38:25;;;;;;;3.00;0.90;;;;;;;23.13;59.34;100697.69;5014825;28;20071;-58
2023/09/26 02:40:57;;;;;;;1.47;0.70;;;;;;;23.13;59.03;100703.00;5024695;28;20475;-59
2023/09/26 02:43:28;;;;;;;4.20;1.23;;;;;;;23.19;58.34;100699.13;5014389;28;20429;-60
2023/09/26 02:45:58;;;;;;;2.40;0.90;;;;;;;23.13;56.24;100687.03;5024617;28;20345;-60
2023/09/26 02:48:29;;;;;;;5.37;1.07;;;;;;;23.14;56.80;100693.19;5014522;28;20387;-58
2023/09/26 02:51:04;;;;;;;3.20;1.10;;;;;;;22.96;57.21;100690.69;5024760;28;20057;-59
2023/09/26 02:53:35;;;;;;;4.87;1.20;;;;;;;22.92;56.68;100683.00;5014444;28;20483;-60
2023/09/26 02:56:11;;;;;;;5.93;1.30;;;;;;;23.02;58.56;100690.34;5022566;28;20653;-63
2023/09/26 02:58:41;;;;;;;4.90;1.33;;;;;;;23.03;57.78;100691.22;5029228;28;20131;-61
2023/09/26 03:01:17;;;;;;;5.57;1.20;;;;;;;23.16;57.69;100689.47;5022489;28;20053;-61
2023/09/26 03:03:48;;;;;;;3.93;1.30;;;;;;;23.21;56.40;100692.75;5043365;28;20408;-60
2023/09/26 03:06:19;;;;;;;11.70;2.07;;;;;;;22.99;63.47;100693.22;5053775;28;20352;-59
2023/09/26 03:08:49;;;;;;;9.13;2.00;;;;;;;22.46;68.15;100685.75;5053063;28;20064;-60
2023/09/26 03:11:24;;;;;;;6.83;1.70;;;;;;;22.19;68.54;100678.44;5029817;28;20053;-59
2023/09/26 03:13:55;;;;;;;10.83;2.07;;;;;;;21.46;74.72;100689.59;5044705;28;20058;-59
2023/09/26 03:16:25;;;;;;;6.77;2.20;;;;;;;20.71;78.86;100680.31;5036992;28;20130;-60
2023/09/26 03:18:56;;;;;;;12.40;2.40;;;;;;;19.99;83.40;100654.72;5047148;28;20056;-59
2023/09/26 03:21:27;;;;;;;6.30;2.47;;;;;;;20.03;85.68;100688.13;5036548;28;20062;-62
2023/09/26 03:23:57;;;;;;;6.20;2.20;;;;;;;20.10;86.13;100678.94;5046941;28;20515;-59
2023/09/26 03:26:30;;;;;;;6.10;2.23;;;;;;;19.86;86.93;100670.38;5037148;28;20397;-57
2023/09/26 03:29:00;;;;;;;8.53;2.40;;;;;;;19.93;86.66;100670.94;5046791;28;20617;-60
2023/09/26 03:31:31;;;;;;;5.70;2.23;;;;;;;19.79;87.10;100671.59;5024760;28;20287;-57
2023/09/26 03:34:02;;;;;;;5.17;2.40;;;;;;;19.86;87.90;100666.88;5027273;28;20810;-57
2023/09/26 03:36:32;;;;;;;4.73;2.37;;;;;;;19.51;88.74;100669.38;5024733;28;20294;-58
2023/09/26 03:39:04;;;;;;;4.57;2.27;;;;;;;19.22;90.10;100674.25;5027068;28;20291;-59
2023/09/26 03:41:36;;;;;;;6.00;2.40;;;;;;;19.22;91.97;100666.31;5032691;28;20276;-62
2023/09/26 03:44:08;;;;;;;5.47;2.47;;;;;;;19.27;92.18;100660.78;4997114;28;20295;-60
2023/09/26 03:46:38;;;;;;;6.37;2.57;;;;;;;19.02;91.84;100655.75;5007307;28;20383;-60
2023/09/26 03:49:09;;;;;;;4.90;2.30;;;;;;;18.77;94.04;100662.16;4997374;28;20280;-60
2023/09/26 03:51:39;;;;;;;5.87;2.40;;;;;;;18.36;94.53;100640.94;5007565;28;20288;-64
2023/09/26 03:54:10;;;;;;;4.30;2.67;;;;;;;18.29;96.64;100660.63;4997253;28;20304;-60
2023/09/26 03:56:42;;;;;;;4.93;1.90;;;;;;;18.26;97.41;100660.78;5007658;28;20288;-58
2023/09/26 03:59:14;;;;;;;5.67;2.40;;;;;;;18.15;98.30;100657.75;4997272;28;20329;-61
2023/09/26 04:01:47;;;;;;;5.20;2.80;;;;;;;18.12;99.05;100653.41;5007332;28;20292;-60
2023/09/26 04:04:17;;;;;;;3.37;2.33;;;;;;;18.00;99.99;100665.38;4997291;28;20288;-60
2023/09/26 04:06:48;;;;;;;9.87;2.30;;;;;;;17.86;100.00;100657.13;5007495;28;20351;-61
2023/09/26 04:09:18;;;;;;;5.73;2.20;;;;;;;17.84;100.00;100658.97;5016027;28;20286;-63
2023/09/26 04:11:51;;;;;;;6.97;2.50;;;;;;;17.85;100.00;100650.13;5026746;28;20294;-61
2023/09/26 04:14:22;;;;;;;5.50;2.40;;;;;;;17.95;100.00;100651.47;5016775;28;20307;-58
2023/09/26 04:16:53;;;;;;;7.33;2.53;;;;;;;17.93;100.00;100655.09;5026664;28;20353;-60
2023/09/26 04:19:23;;;;;;;7.57;2.80;;;;;;;17.97;100.00;100644.34;5016721;28;20279;-61
2023/09/26 04:21:55;;;;;;;3.97;2.37;;;;;;;18.18;100.00;100636.44;5026523;28;20288;-61
2023/09/26 04:24:25;;;;;;;10.40;3.00;;;;;;;18.45;100.00;100643.19;5015713;28;20273;-62
2023/09/26 04:26:57;;;;;;;11.57;3.00;;;;;;;18.65;98.85;100652.94;5026872;28;20299;-59
2023/09/26 04:29:28;;;;;;;5.37;2.53;;;;;;;18.54;96.21;100624.25;5017233;28;20294;-59
2023/09/26 04:31:59;;;;;;;6.53;2.33;;;;;;;18.81;95.77;100646.97;5026499;28;20286;-59
2023/09/26 04:34:32;;;;;;;6.87;2.27;;;;;;;18.72;95.22;100648.19;5016418;28;20874;-60
2023/09/26 04:37:02;;;;;;;7.83;2.93;;;;;;;18.61;95.50;100650.47;5026914;28;20292;-59
2023/09/26 04:39:33;;;;;;;10.20;2.83;;;;;;;18.49;95.68;100646.56;5027779;28;20813;-59
2023/09/26 04:42:06;;;;;;;5.93;2.50;;;;;;;18.39;96.41;100645.25;5046166;28;20273;-58
2023/09/26 04:44:39;;;;;;;11.90;2.57;;;;;;;18.39;97.98;100642.59;5024331;28;20809;-58
2023/09/26 04:47:09;;;;;;;7.57;2.47;;;;;;;18.28;98.08;100653.66;5016100;28;20268;-60
2023/09/26 04:49:40;;;;;;;9.30;2.53;;;;;;;18.24;98.38;100646.75;5026429;28;20366;-62
2023/09/26 04:52:11;;;;;;;9.17;2.30;;;;;;;18.14;98.57;100653.34;5015889;28;20272;-60
2023/09/26 04:54:41;;;;;;;5.63;2.10;;;;;;;17.97;99.02;100654.91;5026355;28;20279;-61
2023/09/26 04:57:14;;;;;;;5.07;2.47;;;;;;;17.79;99.48;100656.47;5015985;28;20259;-63
2023/09/26 04:59:44;;;;;;;5.03;2.40;;;;;;;17.68;100.00;100667.47;5026517;28;20846;-63
2023/09/26 05:02:15;;;;;;;3.90;2.50;;;;;;;17.65;100.00;100664.97;5023626;28;20350;-59
2023/09/26 05:04:48;;;;;;;6.50;2.30;;;;;;;17.67;100.00;100662.25;5025623;28;20274;-59
2023/09/26 05:07:19;;;;;;;6.30;2.10;;;;;;;17.61;100.00;100663.34;5015740;28;20276;-62
2023/09/26 05:09:49;;;;;;;7.60;2.20;;;;;;;17.53;100.00;100649.59;5025627;28;20341;-61
2023/09/26 05:12:21;;;;;;;5.57;2.80;;;;;;;17.55;100.00;100662.75;5025193;28;20567;-59
2023/09/26 05:14:52;;;;;;;6.87;2.63;;;;;;;17.50;100.00;100664.69;5044661;28;20855;-60
2023/09/26 05:17:24;;;;;;;10.03;2.20;;;;;;;17.48;100.00;100664.75;5034986;28;20287;-57
2023/09/26 05:19:55;;;;;;;7.50;2.60;;;;;;;17.36;100.00;100659.94;5044849;28;20868;-59
2023/09/26 05:22:25;;;;;;;9.23;2.73;;;;;;;17.25;100.00;100655.94;5035464;28;20279;-60
2023/09/26 05:24:56;;;;;;;3.30;2.17;;;;;;;17.10;100.00;100664.44;5045296;28;20279;-57
2023/09/26 05:27:28;;;;;;;4.23;2.57;;;;;;;17.05;100.00;100669.03;5035388;28;20347;-58
2023/09/26 05:29:58;;;;;;;8.47;2.63;;;;;;;16.98;100.00;100657.81;5045079;28;20291;-60
2023/09/26 05:32:29;;;;;;;7.33;2.60;;;;;;;16.94;100.00;100660.63;5035840;28;20370;-60
2023/09/26 05:34:59;;;;;;;6.07;2.50;;;;;;;16.93;100.00;100666.81;5045521;28;20294;-60
2023/09/26 05:37:30;;;;;;;7.07;2.50;;;;;;;16.92;100.00;100667.72;5034006;28;20305;-60
2023/09/26 05:40:01;;;;;;;5.33;2.50;;;;;;;16.89;100.00;100667.84;5045168;28;20344;-61
2023/09/26 05:42:33;;;;;;;6.07;2.53;;;;;;;16.79;100.00;100673.44;5034125;28;20673;-57
2023/09/26 05:45:05;;;;;;;5.97;2.40;;;;;;;16.80;100.00;100676.97;5044914;28;20311;-59
2023/09/26 05:47:36;;;;;;;7.13;2.70;;;;;;;16.78;100.00;100669.09;5022674;28;20329;-60
2023/09/26 05:50:07;;;;;;;7.33;2.17;;;;;;;16.70;100.00;100668.47;5015350;28;20658;-57
2023/09/26 05:52:38;;;;;;;8.10;2.70;;;;;;;16.73;100.00;100668.34;5024757;28;20286;-61
2023/09/26 05:55:09;;;;;;;6.57;2.77;;;;;;;16.68;100.00;100664.16;5017378;28;20304;-62
2023/09/26 05:57:42;;;;;;;12.43;3.00;;;;;;;16.22;100.00;100619.13;5024844;28;20290;-61
2023/09/26 06:00:13;;;;;;;11.27;3.33;;;;;;;16.39;100.00;100664.25;5015302;28;20803;-60
2023/09/26 06:02:44;;;;;;;9.00;3.33;;;;;;;16.29;100.00;100673.38;5025552;28;20299;-59
2023/09/26 06:05:14;;;;;;;7.93;3.30;;;;;;;16.13;100.00;100672.19;5015437;28;20275;-59
2023/09/26 06:07:45;;;;;;;10.50;3.80;;;;;;;16.00;100.00;100670.84;5024929;28;20303;-62
2023/09/26 06:10:16;;;;;;;11.17;3.60;;;;;;;15.82;100.00;100677.56;4995157;28;20367;-61
2023/09/26 06:12:48;;;;;;;10.70;4.00;;;;;;;15.49;100.00;100640.78;5005521;28;20281;-61
2023/09/26 06:15:18;;;;;;;8.33;4.20;;;;;;;15.51;100.00;100671.44;4995420;28;20287;-60
2023/09/26 06:17:49;;;;;;;7.10;4.20;;;;;;;15.45;100.00;100682.16;5020914;28;20275;-62
2023/09/26 06:20:19;;;;;;;10.40;4.20;;;;;;;15.37;100.00;100686.78;5015322;28;20302;-62
2023/09/26 06:22:50;;;;;;;8.63;4.00;;;;;;;15.30;100.00;100679.97;5024750;28;20781;-61
2023/09/26 06:25:22;;;;;;;11.37;4.73;;;;;;;15.21;100.00;100685.50;5014363;28;20293;-57
2023/09/26 06:27:54;;;;;;;14.10;5.47;;;;;;;15.18;100.00;100690.88;5024503;28;20283;-58
2023/09/26 06:30:24;;;;;;;13.93;5.97;;;;;;;15.03;100.00;100687.75;5014903;28;20295;-60
2023/09/26 06:32:55;;;;;;;12.87;6.07;;;;;;;14.88;100.00;100693.44;5024912;28;20379;-61
2023/09/26 06:35:25;;;;;;;18.93;6.93;;;;;;;14.82;100.00;100709.38;5014769;28;20290;-59
2023/09/26 06:37:56;;;;;;;22.03;6.37;;;;;;;14.80;100.00;100705.94;5024653;28;20370;-63
2023/09/26 06:40:26;;;;;;;24.37;6.80;;;;;;;14.66;100.00;100709.78;5014620;28;20291;-59
2023/09/26 06:43:00;;;;;;;20.37;5.87;;;;;;;14.49;100.00;100719.84;5031199;28;20287;-58
2023/09/26 06:45:31;;;;;;;12.97;5.80;;;;;;;14.38;100.00;100708.75;5033091;28;20382;-59
2023/09/26 06:48:02;;;;;;;36.80;5.17;;;;;;;14.36;100.00;100715.81;5045671;28;20290;-60
2023/09/26 06:50:33;;;;;;;12.60;5.27;;;;;;;14.34;100.00;100720.25;5037803;28;20562;-60
2023/09/26 06:53:04;;;;;;;21.03;5.17;;;;;;;14.28;100.00;100728.25;5047774;28;20366;-57
2023/09/26 06:55:39;;;;;;;9.20;5.77;;;;;;;14.04;100.00;100683.28;5037051;28;20279;-59
2023/09/26 06:58:11;;;;;;;46.13;5.43;;;;;;;14.16;100.00;100716.28;5036929;28;20643;-58
2023/09/26 07:00:42;;;;;;;15.03;5.00;;;;;;;14.05;100.00;100721.78;5047506;28;20278;-59
2023/09/26 07:03:12;;;;;;;19.03;4.53;;;;;;;14.00;100.00;100715.78;5037139;28;20668;-62
2023/09/26 07:05:43;;;;;;;67.67;5.83;;;;;;;13.99;100.00;100714.06;5047496;28;20282;-60
2023/09/26 07:08:14;;;;;;;15.10;4.60;;;;;;;13.96;100.00;100719.38;5043463;28;20320;-59
2023/09/26 07:10:45;;;;;;;11.37;3.93;;;;;;;13.97;100.00;100718.47;5047462;28;20368;-57
2023/09/26 07:13:18;;;;;;;47.80;4.90;;;;;;;13.93;100.00;100722.09;5036868;28;20282;-60
2023/09/26 07:16:09;;;;;;;91.07;5.60;;;;;;;13.80;100.00;100727.63;5036003;28;20635;-59
2023/09/26 07:18:40;;;;;;;9.85;3.55;;;;;;;13.67;100.00;100715.63;5047095;28;20827;-60
2023/09/26 07:21:10;;;;;;;87.47;6.27;;;;;;;13.76;100.00;100731.19;5036529;28;20048;-59
2023/09/26 07:23:41;;;;;;;88.90;6.10;;;;;;;13.73;100.00;100731.28;5047466;28;20285;-58
2023/09/26 07:26:13;;;;;;;106.87;7.03;;;;;;;13.71;100.00;100738.31;5036344;28;20399;-57
2023/09/26 07:28:47;;;;;;;62.33;5.80;;;;;;;13.61;100.00;100731.53;5047262;28;20283;-59
2023/09/26 07:31:19;;;;;;;29.83;4.55;;;;;;;13.55;100.00;100731.66;5036530;28;20279;-58
2023/09/26 07:33:51;;;;;;;69.60;4.90;;;;;;;13.41;100.00;100723.22;5047078;28;20741;-58
2023/09/26 07:36:22;;;;;;;14.48;4.30;;;;;;;13.38;100.00;100730.25;5035877;28;20293;-59
2023/09/26 07:38:52;;;;;;;73.18;5.30;;;;;;;13.35;100.00;100737.31;5046854;28;20102;-58
2023/09/26 07:41:23;;;;;;;30.88;5.07;;;;;;;13.34;100.00;100749.59;5036549;28;20098;-60
2023/09/26 07:43:55;;;;;;;15.68;4.75;;;;;;;13.29;100.00;100746.19;5046893;28;20048;-58
2023/09/26 07:46:26;;;;;;;50.55;5.72;;;;;;;13.28;100.00;100749.72;5036638;28;20053;-58
2023/09/26 07:48:57;;;;;;;11.43;3.78;;;;;;;13.23;100.00;100746.28;5047240;28;20059;-58
2023/09/26 07:51:27;;;;;;;17.98;4.00;;;;;;;13.20;100.00;100735.81;5036599;28;20044;-61
2023/09/26 07:53:57;;;;;;;45.55;4.68;;;;;;;13.13;100.00;100756.09;5046593;28;20577;-58
2023/09/26 07:56:28;;;;;;;42.28;4.78;;;;;;;13.08;100.00;100749.19;5037077;28;20053;-59
2023/09/26 07:59:00;;;;;;;65.22;5.03;;;;;;;13.02;100.00;100746.69;5045789;28;20036;-59
2023/09/26 08:01:31;;;;;;;19.35;4.47;;;;;;;13.01;100.00;100755.47;5035365;28;20053;-57
2023/09/26 08:04:02;;;;;;;63.17;6.27;;;;;;;13.01;100.00;100755.47;5046477;28;20544;-59
2023/09/26 08:06:33;;;;;;;53.47;4.55;;;;;;;13.00;100.00;100764.22;5035734;28;20372;-60
2023/09/26 08:09:04;;;;;;;60.30;4.95;;;;;;;12.92;100.00;100759.09;5052503;28;20045;-59
2023/09/26 08:11:35;;;;;;;95.30;5.50;;;;;;;12.86;100.00;100767.97;5036160;28;20044;-58
2023/09/26 08:14:07;;;;;;;57.88;5.22;;;;;;;12.85;100.00;100771.44;5044509;28;20475;-61
2023/09/26 08:16:38;;;;;;;36.53;4.40;;;;;;;12.82;100.00;100766.28;5045939;28;20044;-58
2023/09/26 08:19:08;;;;;;;63.28;4.88;;;;;;;12.80;100.00;100768.03;5035733;28;20335;-59
2023/09/26 08:21:39;;;;;;;31.77;5.03;;;;;;;12.81;100.00;100764.56;5046319;28;20041;-59
2023/09/26 08:24:10;;;;;;;33.60;4.28;;;;;;;12.80;100.00;100754.94;5035651;28;20218;-58
2023/09/26 08:26:40;;;;;;;86.10;5.25;;;;;;;12.78;100.00;100759.38;5046094;28;20052;-58
2023/09/26 08:29:12;;;;;;;57.95;4.70;;;;;;;12.73;100.00;100746.34;5035551;28;20076;-61
2023/09/26 08:31:43;;;;;;;87.28;5.43;;;;;;;12.75;100.00;100748.91;5045934;28;20131;-58
2023/09/26 08:34:14;;;;;;;117.30;7.05;;;;;;;12.72;100.00;100760.31;5035375;28;20138;-62
2023/09/26 08:36:46;;;;;;;111.80;6.47;;;;;;;12.69;100.00;100764.75;5045745;28;20311;-59
2023/09/26 08:39:17;;;;;;;42.58;4.88;;;;;;;12.56;100.00;100744.91;5035287;28;20131;-59
2023/09/26 08:41:48;;;;;;;43.78;4.50;;;;;;;12.66;100.00;100765.69;5046198;28;20060;-61
2023/09/26 08:44:21;;;;;;;67.10;5.82;;;;;;;12.69;100.00;100764.75;5026819;28;20059;-61
2023/09/26 08:46:56;;;;;;;86.57;5.22;;;;;;;12.58;100.00;100745.72;5015936;28;20072;-62
2023/09/26 08:49:28;;;;;;;33.20;4.35;;;;;;;12.68;100.00;100757.78;5003668;28;21141;-60
2023/09/26 08:52:00;;;;;;;37.40;4.25;;;;;;;12.66;100.00;100760.44;5012007;28;20056;-60
2023/09/26 08:54:32;;;;;;;22.13;3.88;;;;;;;12.60;100.00;100739.56;5001686;28;20051;-60
2023/09/26 08:57:04;;;;;;;29.40;4.20;;;;;;;12.68;100.00;100758.66;5011846;28;20083;-62
2023/09/26 08:59:39;;;;;;;61.60;4.47;;;;;;;12.66;100.00;100754.34;5031269;28;20140;-59
2023/09/26 09:02:13;;;;;;;134.80;6.63;;;;;;;12.48;100.00;100719.69;5030743;28;20463;-62
2023/09/26 09:04:46;;;;;;;25.90;4.38;;;;;;;12.70;100.00;100764.75;5040598;28;20462;-62
2023/09/26 09:07:18;;;;;;;43.80;4.55;;;;;;;12.67;100.00;100766.53;5030248;28;20049;-61
2023/09/26 09:10:06;;;;;;;61.45;5.63;;;;;;;12.62;100.00;100764.00;5040569;28;20032;-61
2023/09/26 09:12:40;;;;;;;43.10;5.32;;;;;;;12.62;100.00;100765.75;5031011;28;20442;-61
2023/09/26 09:15:28;;;;;;;67.38;5.22;;;;;;;12.56;100.00;100768.50;5030579;28;20142;-63
2023/09/26 09:18:00;;;;;;;10.23;4.05;;;;;;;12.61;100.00;100766.66;5040876;28;20053;-61
2023/09/26 09:20:34;;;;;;;111.55;8.18;;;;;;;12.63;100.00;100780.56;5011702;28;20059;-62
2023/09/26 09:23:08;;;;;;;193.50;7.60;;;;;;;12.16;100.00;100701.00;5020310;28;20052;-59
2023/09/26 09:25:40;;;;;;;135.07;7.50;;;;;;;12.54;100.00;100770.25;5021392;28;20049;-62
2023/09/26 09:28:12;;;;;;;26.63;4.30;;;;;;;12.56;100.00;100778.97;5010360;28;20064;-60
2023/09/26 09:30:46;;;;;;;59.50;4.80;;;;;;;12.59;100.00;100778.91;5025636;28;20043;-61
2023/09/26 09:33:19;;;;;;;130.38;6.65;;;;;;;12.44;100.00;100754.69;5030579;28;20360;-62
2023/09/26 09:35:52;;;;;;;237.13;9.38;;;;;;;12.54;100.00;100772.88;5040309;28;20081;-60
2023/09/26 09:38:24;;;;;;;80.65;5.15;;;;;;;12.51;100.00;100772.03;5029435;28;20480;-61
2023/09/26 09:40:57;;;;;;;46.75;5.90;;;;;;;12.55;100.00;100778.09;5040471;28;20190;-57
2023/09/26 09:43:29;;;;;;;57.55;4.65;;;;;;;12.53;100.00;100772.03;5029890;28;20056;-62
2023/09/26 09:46:07;;;;;;;42.17;4.22;;;;;;;12.50;100.00;100765.09;5040194;28;20052;-61
2023/09/26 09:48:44;;;;;;;123.57;7.05;;;;;;;12.55;100.00;100777.22;5027045;28;20052;-62
2023/09/26 09:51:17;;;;;;;63.80;5.18;;;;;;;12.60;100.00;100767.53;5029206;28;20052;-62
2023/09/26 09:53:55;;;;;;;47.13;4.65;;;;;;;12.52;100.00;100763.28;5040580;28;20048;-60
2023/09/26 09:56:33;;;;;;;15.05;3.67;;;;;;;12.52;100.00;100783.38;5029782;28;20059;-61
2023/09/26 09:59:12;;;;;;;47.88;4.28;;;;;;;12.38;100.00;100760.03;5039988;28;20143;-59
2023/09/26 10:01:49;;;;;;;48.45;4.65;;;;;;;12.50;100.00;100780.81;5006002;28;20060;-61
2023/09/26 10:04:22;;;;;;;47.05;4.55;;;;;;;12.45;100.00;100790.47;5000735;28;20155;-62
2023/09/26 10:07:07;;;;;;;102.90;5.75;;;;;;;12.44;100.00;100794.00;5012027;28;20059;-64
2023/09/26 10:09:48;;;;;;;69.30;4.90;;;;;;;12.48;100.00;100793.06;5033530;28;20444;-62
2023/09/26 10:12:23;;;;;;;82.55;5.25;;;;;;;12.44;100.00;100799.22;5028697;28;20488;-63
2023/09/26 10:14:58;;;;;;;54.05;4.40;;;;;;;12.43;100.00;100797.50;5039550;28;20117;-63
2023/09/26 10:17:32;;;;;;;38.20;4.45;;;;;;;12.43;100.00;100800.13;5030038;28;20071;-62
2023/09/26 10:20:05;;;;;;;51.42;4.72;;;;;;;12.48;100.00;100808.78;5039718;28;20141;-63
2023/09/26 10:22:43;;;;;;;69.38;5.15;;;;;;;12.43;100.00;100792.28;5028852;28;20098;-63
2023/09/26 10:25:23;;;;;;;18.52;3.78;;;;;;;12.46;100.00;100800.09;5029292;28;20043;-63
2023/09/26 10:28:12;;;;;;;;;;;;;;;12.50;100.00;100807.03;5040130;28;20060;-61
2023/09/26 10:30:47;;;;;;;37.78;4.50;;;;;;;12.47;100.00;100800.94;5029782;28;20019;-61
2023/09/26 10:33:22;;;;;;;62.53;4.68;;;;;;;12.47;100.00;100791.31;5029127;28;20484;-63
2023/09/26 10:36:09;;;;;;;49.65;4.70;;;;;;;12.40;100.00;100792.28;5029239;28;20045;-62
2023/09/26 10:38:46;;;;;;;34.92;4.35;;;;;;;12.28;100.00;100784.63;5039908;28;20604;-63
2023/09/26 10:41:20;;;;;;;;;;;;;;;12.40;100.00;100802.78;5030166;28;20044;-60
2023/09/26 10:44:04;;;;;;;15.15;4.05;;;;;;;12.40;100.00;100794.91;5039993;28;19916;-63
2023/09/26 10:46:38;;;;;;;99.85;5.07;;;;;;;12.50;100.00;100812.25;5014623;28;20110;-60
2023/09/26 10:49:12;;;;;;;10.90;4.13;;;;;;;12.51;100.00;100808.75;5024939;28;20097;-61
2023/09/26 10:51:45;;;;;;;85.18;6.22;;;;;;;12.58;100.00;100808.63;5037119;28;20052;-63
2023/09/26 10:54:18;;;;;;;88.35;6.63;;;;;;;12.50;100.00;100807.03;5036627;28;20040;-62
2023/09/26 10:56:50;;;;;;;180.43;8.93;;;;;;;12.46;100.00;100804.47;5048303;28;20110;-59
2023/09/26 10:59:22;;;;;;;196.90;7.82;;;;;;;12.45;100.00;100814.06;5038940;28;20182;-60
2023/09/26 11:01:58;;;;;;;92.13;5.30;;;;;;;11.96;100.00;100757.16;5049078;28;20368;-61
2023/09/26 11:04:35;;;;;;;105.03;6.00;;;;;;;12.23;100.00;100779.47;5037422;28;20064;-60
2023/09/26 11:07:07;;;;;;;126.60;5.65;;;;;;;12.00;100.00;100753.59;5042947;28;20055;-61
2023/09/26 11:09:42;;;;;;;28.10;4.90;;;;;;;12.26;100.00;100791.66;5047978;28;20498;-59
2023/09/26 11:12:15;;;;;;;38.35;4.80;;;;;;;12.29;100.00;100794.22;5037566;28;20047;-62
2023/09/26 11:14:47;;;;;;;64.30;5.88;;;;;;;12.29;100.00;100796.84;5049142;28;20131;-59
2023/09/26 11:17:19;;;;;;;32.55;4.25;;;;;;;12.23;100.00;100781.19;5014314;28;20057;-60
2023/09/26 11:19:54;;;;;;;48.85;4.68;;;;;;;12.32;100.00;100799.41;5023928;28;20070;-58
2023/09/26 11:22:27;;;;;;;81.82;5.45;;;;;;;12.21;100.00;100783.88;5039463;28;20493;-59
2023/09/26 11:25:24;;;;;;;12.55;4.68;;;;;;;12.34;100.00;100812.50;5063368;28;20048;-60
2023/09/26 11:27:55;;;;;;;16.85;4.50;;;;;;;12.38;100.00;100807.22;4972903;28;20166;-61
2023/09/26 11:30:28;;;;;;;16.23;5.15;;;;;;;12.41;100.00;100801.91;4952909;28;20112;-59
2023/09/26 11:32:59;;;;;;;41.63;5.40;;;;;;;12.44;100.00;100796.63;4962530;28;20066;-59
2023/09/26 11:35:36;;;;;;;68.43;6.22;;;;;;;12.44;100.00;100796.63;4947095;28;20046;-59
2023/09/26 11:38:11;;;;;;;54.42;5.32;;;;;;;12.33;100.00;100789.78;4948349;28;20081;-60
2023/09/26 11:40:46;;;;;;;83.03;5.65;;;;;;;12.09;100.00;100763.94;4957123;28;20150;-58